createdAt,value
2019-03-27T00:03:18.311Z,0.00
2019-03-27T00:08:18.480Z,0.00
2019-03-27T00:13:19.541Z,0.00
2019-03-27T00:18:19.587Z,0.00
2019-03-27T00:23:20.767Z,0.00
2019-03-27T00:28:20.950Z,0.00
2019-03-27T00:33:23.767Z,0.00
2019-03-27T00:38:23.927Z,0.00
2019-03-27T00:43:24.978Z,0.00
2019-03-27T00:48:25.197Z,0.00
2019-03-27T00:53:26.389Z,0.00
2019-03-27T00:58:26.527Z,0.00
2019-03-27T01:03:27.665Z,0.00
2019-03-27T01:08:27.854Z,0.00
2019-03-27T01:13:28.964Z,0.00
2019-03-27T01:18:29.144Z,0.00
2019-03-27T01:23:30.279Z,0.00
2019-03-27T01:28:30.537Z,0.00
2019-03-27T01:33:31.682Z,0.00
2019-03-27T01:38:31.823Z,0.00
2019-03-27T01:43:33.031Z,0.00
2019-03-27T01:48:33.173Z,0.00
2019-03-27T01:53:34.395Z,0.00
2019-03-27T01:58:35.865Z,0.00
2019-03-27T02:03:36.932Z,0.00
2019-03-27T02:08:37.292Z,0.00
2019-03-27T02:13:38.153Z,0.00
2019-03-27T02:18:38.368Z,0.00
2019-03-27T02:23:38.692Z,0.00
2019-03-27T02:28:38.773Z,0.00
2019-03-27T02:33:39.924Z,0.00
2019-03-27T02:38:40.013Z,0.00
2019-03-27T02:43:40.511Z,0.00
2019-03-27T02:48:40.633Z,0.00
2019-03-27T02:53:41.693Z,0.00
2019-03-27T02:58:41.808Z,0.00
2019-03-27T03:03:43.014Z,0.00
2019-03-27T03:08:43.023Z,0.00
2019-03-27T03:13:44.336Z,0.00
2019-03-27T03:18:44.632Z,0.00
2019-03-27T03:23:45.727Z,0.00
2019-03-27T03:28:45.932Z,0.00
2019-03-27T03:33:47.456Z,0.00
2019-03-27T03:38:47.307Z,0.00
2019-03-27T03:43:48.745Z,0.00
2019-03-27T03:48:48.999Z,0.00
2019-03-27T03:53:50.159Z,0.00
2019-03-27T03:58:50.281Z,0.00
2019-03-27T04:04:06.394Z,0.00
2019-03-27T08:31:53.984Z,4176.00
2019-03-27T08:36:54.396Z,4184.00
2019-03-27T08:41:55.629Z,4408.00
2019-03-27T08:46:55.813Z,4216.00
2019-03-27T08:51:56.816Z,5208.00
2019-03-27T09:02:41.467Z,2540.00
2019-03-27T09:07:41.586Z,4460.00
2019-03-27T09:12:52.733Z,3196.00
2019-03-27T09:17:52.794Z,2372.00
2019-03-27T09:22:53.874Z,2744.00
2019-03-27T09:27:53.994Z,3368.00
2019-03-27T09:32:55.071Z,3352.00
2019-03-27T09:37:55.186Z,3904.00
2019-03-27T09:42:56.259Z,3724.00
2019-03-27T09:47:56.338Z,5328.00
2019-03-27T09:52:57.449Z,4196.00
2019-03-27T09:57:57.563Z,3620.00
2019-03-27T10:02:58.641Z,3500.00
2019-03-27T10:07:58.756Z,3092.00
2019-03-27T10:12:59.847Z,4776.00
2019-03-27T10:17:59.923Z,9844.00
2019-03-27T10:23:01.047Z,7016.00
2019-03-27T10:28:01.144Z,6060.00
2019-03-27T10:33:02.229Z,8840.00
2019-03-27T10:38:02.343Z,3012.00
2019-03-27T10:43:03.414Z,2712.00
2019-03-27T10:48:03.534Z,8608.00
2019-03-27T10:53:04.665Z,3760.00
2019-03-27T10:58:04.772Z,3340.00
2019-03-27T11:03:05.856Z,6332.00
2019-03-27T11:08:05.964Z,4096.00
2019-03-27T11:13:07.053Z,4392.00
2019-03-27T11:18:07.161Z,6776.00
2019-03-27T11:23:08.246Z,3884.00
2019-03-27T11:28:08.331Z,2900.00
2019-03-27T11:33:09.442Z,4740.00
2019-03-27T11:38:09.523Z,5884.00
2019-03-27T11:43:10.634Z,6016.00
2019-03-27T11:48:10.743Z,3316.00
2019-03-27T11:53:11.850Z,2732.00
2019-03-27T11:58:14.769Z,6468.00
2019-03-27T12:03:16.005Z,7596.00
2019-03-27T12:08:16.171Z,2736.00
2019-03-27T12:13:17.200Z,3224.00
2019-03-27T12:18:17.314Z,4024.00
2019-03-27T12:23:18.447Z,2772.00
2019-03-27T12:28:18.553Z,1892.00
2019-03-27T12:33:19.635Z,3668.00
2019-03-27T12:38:19.748Z,2844.00
2019-03-27T12:43:20.824Z,4104.00
2019-03-27T12:48:20.943Z,3916.00
2019-03-27T12:53:22.019Z,3996.00
2019-03-27T12:58:22.128Z,4096.00
2019-03-27T13:03:23.744Z,2212.00
2019-03-27T13:08:23.883Z,3696.00
2019-03-27T13:13:25.003Z,3188.00
2019-03-27T13:18:25.112Z,1956.00
2019-03-27T13:23:26.197Z,1888.00
2019-03-27T13:28:26.299Z,3352.00
2019-03-27T13:33:27.378Z,2720.00
2019-03-27T13:38:27.497Z,2108.00
2019-03-27T13:43:28.562Z,1756.00
2019-03-27T13:48:28.639Z,2620.00
2019-03-27T13:53:29.749Z,2560.00
2019-03-27T13:58:29.866Z,2532.00
2019-03-27T14:03:30.944Z,2188.00
2019-03-27T14:08:31.063Z,2344.00
2019-03-27T14:13:32.130Z,2424.00
2019-03-27T14:18:32.256Z,2772.00
2019-03-27T14:23:34.237Z,3708.00
2019-03-27T14:28:34.517Z,2880.00
2019-03-27T14:33:35.526Z,3020.00
2019-03-27T14:38:35.648Z,6316.00
2019-03-27T14:43:36.711Z,10060.00
2019-03-27T14:48:36.768Z,7364.00
2019-03-27T14:53:37.954Z,7064.00
2019-03-27T14:58:37.959Z,10968.00
2019-03-27T15:03:39.113Z,17312.00
2019-03-27T15:08:39.215Z,9256.00
2019-03-27T15:13:40.280Z,6268.00
2019-03-27T15:18:40.403Z,3612.00
2019-03-27T15:23:41.473Z,3480.00
2019-03-27T15:28:41.594Z,3244.00
2019-03-27T15:33:42.665Z,3020.00
2019-03-27T15:38:42.779Z,3212.00
2019-03-27T15:43:43.855Z,2988.00
2019-03-27T15:48:43.896Z,1936.00
2019-03-27T15:53:47.306Z,1944.00
2019-03-27T15:58:48.146Z,884.00
2019-03-27T16:03:49.217Z,1308.00
2019-03-27T16:08:49.324Z,924.00
2019-03-27T16:13:50.426Z,1372.00
2019-03-27T16:18:50.451Z,696.00
2019-03-27T16:24:05.570Z,420.00
2019-03-27T16:28:56.715Z,352.00
2019-03-27T16:33:57.791Z,376.00
2019-03-27T16:38:57.920Z,352.00
2019-03-27T16:43:58.994Z,336.00
2019-03-27T16:48:59.068Z,268.00
2019-03-27T16:54:01.412Z,208.00
2019-03-27T16:59:01.311Z,180.00
2019-03-27T17:04:02.400Z,140.00
2019-03-27T17:09:02.537Z,168.00
2019-03-27T17:14:03.626Z,116.00
2019-03-27T17:19:04.942Z,64.00
2019-03-27T17:24:05.821Z,48.00
2019-03-27T17:29:05.936Z,44.00
2019-03-27T17:34:07.003Z,20.00
2019-03-27T17:39:07.120Z,12.00
2019-03-27T17:44:08.280Z,4.00
2019-03-27T17:49:09.573Z,4.00
2019-03-27T17:54:20.336Z,4.00
2019-03-27T17:59:15.782Z,4.00
2019-03-27T18:04:16.866Z,4.00
2019-03-27T18:09:16.977Z,4.00
2019-03-27T18:14:18.057Z,4.00
2019-03-27T18:19:18.172Z,4.00
2019-03-27T18:24:21.649Z,4.00
2019-03-27T18:29:21.362Z,4.00
2019-03-27T18:34:22.448Z,4.00
2019-03-27T18:39:22.482Z,4.00
2019-03-27T18:44:23.633Z,4.00
2019-03-27T18:49:23.731Z,4.00
2019-03-27T18:54:24.803Z,4.00
2019-03-27T18:59:24.926Z,4.00
2019-03-27T19:04:25.998Z,4.00
2019-03-27T19:09:26.110Z,4.00
2019-03-27T19:14:27.197Z,4.00
2019-03-27T19:19:27.294Z,4.00
2019-03-27T19:24:29.579Z,4.00
2019-03-27T19:29:29.486Z,4.00
2019-03-27T19:34:30.550Z,4.00
2019-03-27T19:39:31.865Z,4.00
2019-03-27T19:44:32.938Z,4.00
2019-03-27T19:49:34.285Z,4.00
2019-03-27T19:54:35.137Z,4.00
2019-03-27T19:59:36.452Z,4.00
2019-03-27T20:04:39.086Z,4.00
2019-03-27T20:09:39.202Z,4.00
2019-03-27T20:14:42.493Z,4.00
2019-03-27T20:19:42.389Z,4.00
2019-03-27T20:24:43.467Z,4.00
2019-03-27T20:29:46.416Z,4.00
2019-03-27T20:34:47.647Z,4.00
2019-03-27T20:39:47.696Z,4.00
2019-03-27T20:44:48.857Z,4.00
2019-03-27T20:49:48.973Z,4.00
2019-03-27T20:54:55.383Z,4.00
2019-03-27T20:59:55.191Z,4.00
2019-03-27T21:04:56.287Z,4.00
2019-03-27T21:09:56.383Z,4.00
2019-03-27T21:14:57.449Z,4.00
2019-03-27T21:19:57.562Z,4.00
2019-03-27T21:25:08.627Z,4.00
2019-03-27T21:30:03.749Z,4.00
2019-03-27T21:35:04.795Z,4.00
2019-03-27T21:40:05.193Z,4.00
2019-03-27T21:45:06.374Z,4.00
2019-03-27T21:50:06.241Z,4.00
2019-03-27T21:55:07.362Z,4.00
2019-03-27T22:00:07.502Z,4.00
2019-03-27T22:05:10.324Z,4.00
2019-03-27T22:10:10.442Z,4.00
2019-03-27T22:16:42.852Z,4.00
2019-03-27T22:21:42.879Z,4.00
2019-03-27T22:26:43.578Z,4.00
2019-03-27T22:31:45.128Z,4.00
2019-03-27T22:36:45.235Z,4.00
2019-03-27T22:41:47.276Z,4.00
2019-03-27T22:46:47.424Z,4.00
2019-03-27T22:51:48.497Z,4.00
2019-03-27T22:56:48.608Z,4.00
2019-03-27T23:01:49.685Z,4.00
2019-03-27T23:06:49.805Z,4.00
2019-03-27T23:11:50.877Z,0.00
2019-03-27T23:16:50.949Z,0.00
2019-03-27T23:21:52.068Z,0.00
2019-03-27T23:26:52.202Z,0.00
2019-03-27T23:31:53.282Z,0.00
2019-03-27T23:36:53.373Z,0.00
2019-03-27T23:41:54.488Z,0.00
2019-03-27T23:46:54.570Z,0.00
2019-03-27T23:51:55.682Z,0.00
2019-03-27T23:56:55.795Z,0.00
